Time;durP1;ratioP1;P1;durP2;ratioP2;P2;SDS_P1;SDS_P2;PMS_P1;PMS_P2;Temp;Humidity;BMP_temperature;BMP_pressure;BME280_temperature;BME280_humidity;BME280_pressure;Samples;Min_cycle;Max_cycle;Signal;HPM_P1;HPM_P2
2022/09/16 00:00:28;;;;;;;0.50;0.40;;;13.60;99.90;;;;;;5031528;28;20528;-77
2022/09/16 00:02:57;;;;;;;0.50;0.40;;;13.60;99.90;;;;;;5031223;28;20508;-78
2022/09/16 00:05:24;;;;;;;0.50;0.40;;;13.60;99.90;;;;;;5031698;28;20438;-77
2022/09/16 00:07:54;;;;;;;1.87;0.60;;;13.60;99.90;;;;;;5031572;28;20454;-78
2022/09/16 00:10:22;;;;;;;0.50;0.40;;;13.60;99.90;;;;;;5031608;28;20427;-79
2022/09/16 00:12:49;;;;;;;0.50;0.40;;;13.60;99.90;;;;;;5031172;28;20491;-78
2022/09/16 00:15:16;;;;;;;0.50;0.40;;;13.60;99.90;;;;;;5031459;28;20448;-78
2022/09/16 00:17:43;;;;;;;0.70;0.70;;;13.60;99.90;;;;;;5031825;28;20777;-78
2022/09/16 00:20:10;;;;;;;0.50;0.40;;;13.60;99.90;;;;;;5031471;28;20927;-78
2022/09/16 00:22:37;;;;;;;0.50;0.40;;;13.60;99.90;;;;;;5031402;28;20912;-79
2022/09/16 00:25:07;;;;;;;0.50;0.40;;;13.60;99.90;;;;;;5031220;28;20458;-79
2022/09/16 00:27:33;;;;;;;0.50;0.40;;;13.60;99.90;;;;;;5031848;28;20452;-79
2022/09/16 00:30:00;;;;;;;0.50;0.40;;;13.60;99.90;;;;;;5033680;28;21054;-77
2022/09/16 00:32:27;;;;;;;0.50;0.40;;;13.60;99.90;;;;;;5035208;28;20908;-77
2022/09/16 00:34:54;;;;;;;0.50;0.40;;;13.60;99.90;;;;;;5034998;28;20444;-79
2022/09/16 00:37:21;;;;;;;0.50;0.40;;;13.60;99.90;;;;;;5034962;28;20815;-78
2022/09/16 00:39:48;;;;;;;0.50;0.40;;;13.60;99.90;;;;;;5035596;28;20434;-78
2022/09/16 00:42:17;;;;;;;0.50;0.40;;;13.60;99.90;;;;;;5035289;28;20468;-77
2022/09/16 00:44:59;;;;;;;0.50;0.40;;;13.60;99.90;;;;;;5035055;28;20465;-78
2022/09/16 00:47:31;;;;;;;0.57;0.57;;;13.60;99.90;;;;;;5035681;28;20461;-75
2022/09/16 00:50:03;;;;;;;0.50;0.40;;;13.50;99.90;;;;;;5035755;28;20433;-76
2022/09/16 00:52:31;;;;;;;0.50;0.40;;;13.50;99.90;;;;;;5035014;28;20485;-78
2022/09/16 00:54:59;;;;;;;0.50;0.40;;;13.50;99.90;;;;;;5034564;28;20438;-78
2022/09/16 00:57:27;;;;;;;0.50;0.40;;;13.40;99.90;;;;;;5035492;28;20528;-75
2022/09/16 00:59:55;;;;;;;0.90;0.90;;;13.40;99.90;;;;;;5035173;28;21011;-78
2022/09/16 01:02:24;;;;;;;0.50;0.40;;;13.40;99.90;;;;;;5035194;28;20453;-78
2022/09/16 01:04:56;;;;;;;0.50;0.40;;;13.50;99.90;;;;;;5035275;28;20954;-77
2022/09/16 01:07:31;;;;;;;0.50;0.40;;;13.40;99.90;;;;;;5036304;28;20438;-78
2022/09/16 01:09:58;;;;;;;0.60;0.50;;;13.40;99.90;;;;;;5035210;28;20422;-78
2022/09/16 01:12:29;;;;;;;0.50;0.40;;;13.40;99.90;;;;;;5035110;28;20481;-78
2022/09/16 01:14:57;;;;;;;0.50;0.40;;;13.30;99.90;;;;;;5035273;28;20559;-79
2022/09/16 01:17:34;;;;;;;0.50;0.50;;;13.30;99.90;;;;;;5036804;28;21031;-79
2022/09/16 01:20:25;;;;;;;0.50;0.40;;;13.40;99.90;;;;;;5036417;28;20509;-79
2022/09/16 01:23:25;;;;;;;0.50;0.40;;;13.30;99.90;;;;;;5037015;28;20467;-79
2022/09/16 01:26:14;;;;;;;0.50;0.40;;;13.30;99.90;;;;;;4962211;28;20962;-80
2022/09/16 01:29:10;;;;;;;0.90;0.90;;;13.30;99.90;;;;;;5036858;28;20445;-79
2022/09/16 01:31:42;;;;;;;0.50;0.40;;;13.30;99.90;;;;;;5035392;28;20566;-79
2022/09/16 01:34:19;;;;;;;0.60;0.40;;;13.30;99.90;;;;;;5035792;28;20464;-80
2022/09/16 01:36:53;;;;;;;0.60;0.60;;;13.20;99.90;;;;;;5036429;28;20819;-79
2022/09/16 01:39:31;;;;;;;0.50;0.50;;;13.20;99.90;;;;;;5040420;28;20432;-79
2022/09/16 01:42:15;;;;;;;0.50;0.40;;;13.20;99.90;;;;;;5039426;28;20531;-78
2022/09/16 01:44:52;;;;;;;1.10;1.10;;;13.20;99.90;;;;;;5043608;28;20509;-79
2022/09/16 01:47:27;;;;;;;0.60;0.50;;;13.20;99.90;;;;;;5039319;28;20445;-78
2022/09/16 01:50:02;;;;;;;1.80;0.60;;;13.10;99.90;;;;;;5036004;28;20815;-79
2022/09/16 01:52:39;;;;;;;0.50;0.40;;;13.10;99.90;;;;;;5035799;28;20919;-78
2022/09/16 01:55:10;;;;;;;0.50;0.40;;;13.10;99.90;;;;;;5035239;28;20605;-79
2022/09/16 01:57:40;;;;;;;0.50;0.40;;;13.10;99.90;;;;;;5035977;28;20548;-79
2022/09/16 02:00:10;;;;;;;0.60;0.50;;;13.10;99.90;;;;;;5036249;28;20788;-79
2022/09/16 02:02:42;;;;;;;0.50;0.40;;;13.10;99.90;;;;;;5047389;28;20462;-79
2022/09/16 02:05:13;;;;;;;0.50;0.40;;;13.00;99.90;;;;;;5049760;28;21049;-78
2022/09/16 02:07:44;;;;;;;0.50;0.40;;;13.10;99.90;;;;;;5051501;28;20747;-79
2022/09/16 02:10:17;;;;;;;0.50;0.40;;;13.00;99.90;;;;;;5045107;28;20469;-79
2022/09/16 02:12:46;;;;;;;0.50;0.40;;;13.00;99.90;;;;;;5035139;28;20478;-79
2022/09/16 02:15:20;;;;;;;0.50;0.40;;;13.00;99.90;;;;;;5035113;28;20888;-78
2022/09/16 02:17:53;;;;;;;0.50;0.40;;;13.00;99.90;;;;;;5052869;28;20436;-79
2022/09/16 02:20:26;;;;;;;0.50;0.40;;;13.00;99.90;;;;;;5040776;28;20528;-79
2022/09/16 02:22:58;;;;;;;0.50;0.50;;;13.00;99.90;;;;;;5034655;28;20430;-78
2022/09/16 02:25:27;;;;;;;0.50;0.40;;;13.10;99.90;;;;;;5034678;28;20516;-78
2022/09/16 02:27:54;;;;;;;0.57;0.57;;;13.00;99.90;;;;;;5034690;28;20550;-77
2022/09/16 02:30:23;;;;;;;0.50;0.40;;;13.00;99.90;;;;;;5034564;28;20447;-78
2022/09/16 02:32:56;;;;;;;0.77;0.77;;;13.00;99.90;;;;;;5034226;28;20497;-79
2022/09/16 02:35:25;;;;;;;0.50;0.40;;;13.00;99.90;;;;;;5033820;28;20473;-77
2022/09/16 02:37:56;;;;;;;0.50;0.40;;;13.00;99.90;;;;;;5034158;28;20473;-78
2022/09/16 02:40:28;;;;;;;0.50;0.50;;;13.10;99.90;;;;;;5033862;28;20824;-79
2022/09/16 02:42:56;;;;;;;0.50;0.50;;;13.10;99.90;;;;;;5033700;28;20422;-79
2022/09/16 02:45:31;;;;;;;0.50;0.40;;;13.00;99.90;;;;;;5033697;28;20524;-78
2022/09/16 02:48:04;;;;;;;0.50;0.40;;;13.00;99.90;;;;;;5033858;28;20431;-78
2022/09/16 02:50:40;;;;;;;0.50;0.40;;;13.00;99.90;;;;;;5033928;28;20447;-79
2022/09/16 02:53:16;;;;;;;0.67;0.67;;;13.00;99.90;;;;;;5032954;28;20480;-78
2022/09/16 02:55:53;;;;;;;0.50;0.40;;;13.00;99.90;;;;;;5033577;28;20527;-79
2022/09/16 02:58:20;;;;;;;0.50;0.50;;;13.00;99.90;;;;;;5033486;28;21001;-77
2022/09/16 03:00:51;;;;;;;0.63;0.63;;;12.90;99.90;;;;;;5034274;28;20554;-79
2022/09/16 03:03:19;;;;;;;0.50;0.40;;;12.90;99.90;;;;;;5035009;28;20508;-80
2022/09/16 03:06:15;;;;;;;0.50;0.40;;;12.80;99.90;;;;;;5032854;28;20481;-80
2022/09/16 03:08:43;;;;;;;0.50;0.40;;;12.80;99.90;;;;;;4988248;28;20449;-79
2022/09/16 03:11:28;;;;;;;0.50;0.40;;;12.70;99.90;;;;;;5033302;28;20479;-79
2022/09/16 03:14:11;;;;;;;18.20;11.87;;;12.70;99.90;;;;;;5032684;28;20812;-78
2022/09/16 03:16:47;;;;;;;0.50;0.40;;;12.70;99.90;;;;;;5034636;28;20513;-78
2022/09/16 03:19:24;;;;;;;0.50;0.40;;;12.70;99.90;;;;;;5035848;28;20461;-79
2022/09/16 03:21:59;;;;;;;1.37;0.90;;;12.70;99.90;;;;;;5036804;28;20221;-79
2022/09/16 03:24:34;;;;;;;0.80;0.60;;;12.70;99.90;;;;;;5036109;28;20438;-78
2022/09/16 03:27:08;;;;;;;7.17;2.10;;;12.60;99.90;;;;;;5034857;28;20441;-79
2022/09/16 03:29:40;;;;;;;0.50;0.40;;;12.60;99.90;;;;;;5035354;28;20429;-78
2022/09/16 03:32:16;;;;;;;1.63;0.63;;;12.60;99.90;;;;;;5035659;28;20488;-79
2022/09/16 03:34:48;;;;;;;0.50;0.40;;;12.60;99.90;;;;;;5037314;28;20441;-79
2022/09/16 03:37:19;;;;;;;0.50;0.40;;;12.60;99.90;;;;;;5038204;28;20418;-79
2022/09/16 03:39:52;;;;;;;0.50;0.43;;;12.60;99.90;;;;;;5037986;28;20867;-79
2022/09/16 03:42:20;;;;;;;0.50;0.40;;;12.60;99.90;;;;;;5038265;28;20466;-78
2022/09/16 03:44:47;;;;;;;0.50;0.40;;;12.60;99.90;;;;;;5036897;28;20919;-79
2022/09/16 03:47:14;;;;;;;0.60;0.52;;;12.60;99.90;;;;;;5038223;28;20291;-79
2022/09/16 03:49:41;;;;;;;0.60;0.60;;;12.60;99.90;;;;;;5037645;28;20201;-79
2022/09/16 03:52:10;;;;;;;1.20;1.10;;;12.60;99.90;;;;;;5036533;28;20481;-78
2022/09/16 03:54:37;;;;;;;0.50;0.40;;;12.60;99.90;;;;;;5036924;28;20441;-78
2022/09/16 03:57:05;;;;;;;0.50;0.40;;;12.60;99.90;;;;;;5037698;28;20818;-78
2022/09/16 03:59:32;;;;;;;4.83;0.87;;;12.60;99.90;;;;;;5037915;28;20511;-78
2022/09/16 04:01:59;;;;;;;0.50;0.40;;;12.60;99.90;;;;;;5037154;28;20502;-79
2022/09/16 04:04:25;;;;;;;0.50;0.40;;;12.60;99.90;;;;;;5040531;28;20476;-78
2022/09/16 04:06:52;;;;;;;0.50;0.40;;;12.60;99.90;;;;;;5042489;28;20286;-78
2022/09/16 04:09:20;;;;;;;0.53;0.53;;;12.70;99.90;;;;;;5041702;28;20443;-78
2022/09/16 04:11:47;;;;;;;1.00;0.77;;;12.70;99.90;;;;;;5041605;28;20470;-78
2022/09/16 04:14:14;;;;;;;0.50;0.40;;;12.70;99.90;;;;;;5040990;28;20476;-78
2022/09/16 04:16:41;;;;;;;6.83;2.00;;;12.60;99.90;;;;;;5042166;28;20704;-78
2022/09/16 04:19:10;;;;;;;0.50;0.40;;;12.60;99.90;;;;;;5041246;28;20537;-78
2022/09/16 04:21:36;;;;;;;0.50;0.40;;;12.60;99.90;;;;;;5042853;28;21054;-78
2022/09/16 04:24:03;;;;;;;0.90;0.80;;;12.60;99.90;;;;;;5041314;28;20449;-78
2022/09/16 04:26:32;;;;;;;0.70;0.70;;;12.60;99.90;;;;;;5041602;28;20438;-78
2022/09/16 04:28:58;;;;;;;1.23;0.83;;;12.60;99.90;;;;;;5041690;28;20502;-78
2022/09/16 04:31:25;;;;;;;0.50;0.40;;;12.70;99.90;;;;;;5040550;28;20541;-79
2022/09/16 04:33:52;;;;;;;0.60;0.50;;;12.70;99.90;;;;;;5037063;28;20482;-77
2022/09/16 04:36:20;;;;;;;0.50;0.40;;;12.70;99.90;;;;;;5031275;28;20457;-79
2022/09/16 04:38:48;;;;;;;0.90;0.90;;;12.70;99.90;;;;;;5021251;28;20448;-79
2022/09/16 04:41:17;;;;;;;0.50;0.40;;;12.70;99.90;;;;;;5021251;28;20544;-79
2022/09/16 04:43:46;;;;;;;0.50;0.40;;;12.70;99.90;;;;;;5022715;28;20434;-78
2022/09/16 04:46:13;;;;;;;0.60;0.53;;;12.70;99.90;;;;;;5021352;28;20458;-79
2022/09/16 04:48:40;;;;;;;0.50;0.40;;;12.70;99.90;;;;;;5021541;28;20477;-78
2022/09/16 04:51:09;;;;;;;0.50;0.40;;;12.70;99.90;;;;;;5021843;28;20473;-78
2022/09/16 04:53:37;;;;;;;0.60;0.60;;;12.60;99.90;;;;;;5021119;28;20915;-78
2022/09/16 04:56:06;;;;;;;0.50;0.40;;;12.70;99.90;;;;;;5022275;28;20446;-78
2022/09/16 04:58:32;;;;;;;0.50;0.40;;;12.70;99.90;;;;;;5022331;28;20463;-78
2022/09/16 05:01:06;;;;;;;0.60;0.50;;;12.70;99.90;;;;;;5022659;28;20861;-78
2022/09/16 05:03:33;;;;;;;0.50;0.50;;;12.70;99.90;;;;;;5021989;28;20521;-79
2022/09/16 05:06:11;;;;;;;0.50;0.40;;;12.70;99.90;;;;;;5027094;28;20468;-78
2022/09/16 05:08:39;;;;;;;0.50;0.40;;;12.60;99.90;;;;;;5021129;28;20816;-78
2022/09/16 05:11:08;;;;;;;0.50;0.50;;;12.70;99.90;;;;;;5018753;28;20467;-78
2022/09/16 05:13:35;;;;;;;9.40;1.10;;;12.60;99.90;;;;;;5016040;28;20557;-78
2022/09/16 05:16:06;;;;;;;1.77;0.60;;;12.60;99.90;;;;;;5015184;28;20469;-78
2022/09/16 05:18:33;;;;;;;0.50;0.50;;;12.60;99.90;;;;;;5016108;28;20460;-77
2022/09/16 05:21:02;;;;;;;0.50;0.40;;;12.60;99.90;;;;;;5017005;28;20526;-78
2022/09/16 05:23:29;;;;;;;0.50;0.40;;;12.60;99.90;;;;;;5018474;28;20448;-78
2022/09/16 05:25:56;;;;;;;2.50;1.23;;;12.60;99.90;;;;;;5024096;28;20278;-79
2022/09/16 05:28:23;;;;;;;0.50;0.40;;;12.60;99.90;;;;;;5038169;28;20528;-78
2022/09/16 05:30:49;;;;;;;0.50;0.40;;;12.50;99.90;;;;;;5037785;28;20501;-77
2022/09/16 05:33:18;;;;;;;0.50;0.40;;;12.50;99.90;;;;;;5039421;28;20477;-78
2022/09/16 05:35:44;;;;;;;0.50;0.50;;;12.50;99.90;;;;;;5039660;28;20203;-80
2022/09/16 05:38:13;;;;;;;0.50;0.40;;;12.60;99.90;;;;;;5040708;28;20193;-79
2022/09/16 05:40:39;;;;;;;1.10;1.00;;;12.60;99.90;;;;;;5036588;28;20229;-77
2022/09/16 05:43:06;;;;;;;0.50;0.40;;;12.60;99.90;;;;;;5032699;28;20440;-78
2022/09/16 05:45:33;;;;;;;0.50;0.40;;;12.70;99.90;;;;;;5029512;28;20581;-77
2022/09/16 05:48:00;;;;;;;0.50;0.40;;;12.80;99.90;;;;;;5032817;28;20898;-77
2022/09/16 05:50:28;;;;;;;0.50;0.40;;;12.90;99.90;;;;;;5033628;28;20451;-77
2022/09/16 05:52:55;;;;;;;0.50;0.40;;;12.90;99.90;;;;;;5036089;28;20470;-77
2022/09/16 05:55:22;;;;;;;1.07;0.90;;;13.10;99.90;;;;;;5037985;28;20987;-79
2022/09/16 05:57:49;;;;;;;0.50;0.50;;;13.20;99.90;;;;;;5040017;28;20528;-79
2022/09/16 06:00:16;;;;;;;0.50;0.40;;;13.10;99.90;;;;;;5040251;28;20823;-80
2022/09/16 06:02:43;;;;;;;1.17;0.70;;;13.10;99.90;;;;;;5041236;28;20464;-79
2022/09/16 06:05:09;;;;;;;0.50;0.40;;;13.10;99.90;;;;;;5040392;28;20935;-79
2022/09/16 06:07:38;;;;;;;0.50;0.50;;;13.20;99.90;;;;;;5039414;28;20485;-79
2022/09/16 06:10:06;;;;;;;1.23;1.13;;;13.20;99.90;;;;;;5038848;28;20449;-79
2022/09/16 06:12:32;;;;;;;0.50;0.40;;;13.20;99.90;;;;;;5037823;28;20544;-79
2022/09/16 06:15:00;;;;;;;0.60;0.60;;;13.20;99.90;;;;;;5038705;28;21296;-79
2022/09/16 06:17:27;;;;;;;0.50;0.50;;;13.20;99.90;;;;;;5037782;28;20453;-78
2022/09/16 06:19:54;;;;;;;0.50;0.40;;;13.20;99.90;;;;;;5038291;28;20481;-80
2022/09/16 06:22:20;;;;;;;7.70;0.83;;;13.20;99.90;;;;;;5040173;28;20462;-78
2022/09/16 06:24:49;;;;;;;0.50;0.40;;;13.20;99.90;;;;;;5039060;28;20506;-80
2022/09/16 06:27:15;;;;;;;0.50;0.40;;;13.20;99.90;;;;;;5037931;28;20541;-80
2022/09/16 06:29:42;;;;;;;0.60;0.57;;;13.20;99.90;;;;;;5039234;28;20532;-79
2022/09/16 06:32:09;;;;;;;1.67;0.90;;;13.20;99.90;;;;;;5038023;28;20496;-79
2022/09/16 06:34:36;;;;;;;0.50;0.50;;;13.30;99.90;;;;;;5037963;28;20556;-79
2022/09/16 06:37:03;;;;;;;0.50;0.40;;;13.30;99.90;;;;;;5039089;28;20445;-79
2022/09/16 06:39:29;;;;;;;0.50;0.40;;;13.30;99.90;;;;;;5036959;28;20434;-76
2022/09/16 06:41:58;;;;;;;0.50;0.40;;;13.30;99.90;;;;;;5036216;28;20505;-80
2022/09/16 06:44:24;;;;;;;0.50;0.50;;;13.40;99.90;;;;;;5038321;28;20509;-76
2022/09/16 06:46:51;;;;;;;0.93;0.77;;;13.40;99.90;;;;;;5038355;28;20452;-80
2022/09/16 06:49:18;;;;;;;0.50;0.40;;;13.50;99.90;;;;;;5037170;28;20455;-78
2022/09/16 06:51:45;;;;;;;0.50;0.40;;;13.50;99.90;;;;;;5034923;28;20471;-77
2022/09/16 06:54:12;;;;;;;0.50;0.40;;;13.60;99.90;;;;;;5034313;28;20564;-77
2022/09/16 06:56:40;;;;;;;1.33;0.90;;;13.70;99.90;;;;;;5034913;28;20455;-78
2022/09/16 06:59:09;;;;;;;0.50;0.40;;;13.70;99.90;;;;;;5034723;28;20507;-79
2022/09/16 07:01:36;;;;;;;0.50;0.40;;;13.90;99.90;;;;;;5035518;28;20471;-78
2022/09/16 07:04:06;;;;;;;0.50;0.40;;;14.20;99.90;;;;;;5034216;28;20429;-78
2022/09/16 07:06:33;;;;;;;0.50;0.40;;;14.40;99.90;;;;;;5035528;28;20441;-79
2022/09/16 07:09:00;;;;;;;0.50;0.40;;;14.50;99.90;;;;;;5046555;28;20525;-79
2022/09/16 07:11:27;;;;;;;0.50;0.40;;;14.60;99.90;;;;;;5046429;28;20466;-79
2022/09/16 07:13:54;;;;;;;0.50;0.40;;;14.70;99.90;;;;;;5044757;28;20520;-78
2022/09/16 07:16:24;;;;;;;0.50;0.50;;;14.70;99.90;;;;;;5047462;28;20827;-79
2022/09/16 07:18:53;;;;;;;0.50;0.40;;;14.80;99.90;;;;;;5048386;28;20453;-79
2022/09/16 07:21:23;;;;;;;3.13;0.73;;;14.90;99.90;;;;;;5048132;28;20496;-76
2022/09/16 07:23:50;;;;;;;3.00;2.80;;;15.10;99.90;;;;;;5048948;28;20442;-78
2022/09/16 07:26:19;;;;;;;0.50;0.40;;;15.30;99.90;;;;;;5049876;28;20474;-79
2022/09/16 07:28:47;;;;;;;0.87;0.80;;;15.60;99.90;;;;;;5048948;28;20469;-78
2022/09/16 07:31:16;;;;;;;0.50;0.40;;;16.50;99.90;;;;;;5050797;28;20469;-78
2022/09/16 07:33:47;;;;;;;0.50;0.40;;;18.60;99.90;;;;;;5050166;28;20581;-78
2022/09/16 07:36:16;;;;;;;0.60;0.40;;;19.90;99.90;;;;;;5051783;28;20423;-79
2022/09/16 07:38:43;;;;;;;0.93;0.93;;;20.90;99.90;;;;;;5051201;28;20442;-79
2022/09/16 07:41:12;;;;;;;0.50;0.30;;;20.60;99.90;;;;;;5036619;28;20462;-79
2022/09/16 07:43:40;;;;;;;0.50;0.30;;;19.80;99.90;;;;;;5034756;28;20472;-79
2022/09/16 07:46:09;;;;;;;0.50;0.30;;;19.80;99.90;;;;;;5034969;28;20442;-79
2022/09/16 07:48:36;;;;;;;0.60;0.60;;;19.80;99.90;;;;;;5034370;28;20552;-78
2022/09/16 07:51:06;;;;;;;0.50;0.30;;;20.30;99.90;;;;;;5034492;28;20544;-78
2022/09/16 07:53:34;;;;;;;0.50;0.50;;;20.30;99.90;;;;;;5034110;28;20914;-79
2022/09/16 07:56:03;;;;;;;0.60;0.60;;;20.20;99.90;;;;;;5034065;28;20418;-78
2022/09/16 07:58:30;;;;;;;0.50;0.30;;;21.00;99.90;;;;;;5034066;28;20446;-79
2022/09/16 08:00:57;;;;;;;0.50;0.40;;;21.90;99.90;;;;;;5035020;28;20462;-78
2022/09/16 08:03:23;;;;;;;0.50;0.30;;;23.10;99.90;;;;;;5034756;28;20525;-76
2022/09/16 08:05:50;;;;;;;0.50;0.30;;;24.00;96.60;;;;;;5035647;28;20884;-79
2022/09/16 08:08:19;;;;;;;0.50;0.40;;;24.90;93.70;;;;;;5036567;28;20529;-79
2022/09/16 08:10:54;;;;;;;0.50;0.40;;;25.90;89.10;;;;;;5036684;28;20505;-79
2022/09/16 08:13:21;;;;;;;0.50;0.30;;;27.00;85.20;;;;;;5037204;28;20466;-79
2022/09/16 08:15:47;;;;;;;0.50;0.30;;;27.70;77.10;;;;;;5036735;28;20446;-79
2022/09/16 08:18:14;;;;;;;0.50;0.30;;;28.40;74.50;;;;;;5037669;28;20509;-80
2022/09/16 08:20:41;;;;;;;0.50;0.30;;;28.60;70.10;;;;;;5037817;28;20468;-79
2022/09/16 08:23:08;;;;;;;0.50;0.30;;;29.00;69.40;;;;;;5036803;28;20437;-79
2022/09/16 08:25:36;;;;;;;0.50;0.30;;;29.20;67.70;;;;;;5037213;28;20545;-79
2022/09/16 08:28:03;;;;;;;0.50;0.30;;;29.00;66.80;;;;;;5037195;28;21046;-79
2022/09/16 08:30:30;;;;;;;0.60;0.60;;;30.50;65.20;;;;;;5036475;28;20502;-80
2022/09/16 08:32:58;;;;;;;0.50;0.30;;;30.80;61.40;;;;;;5037644;28;20444;-79
2022/09/16 08:35:25;;;;;;;0.50;0.30;;;30.80;59.70;;;;;;5036706;28;20549;-79
2022/09/16 08:37:52;;;;;;;0.50;0.30;;;31.70;58.80;;;;;;5036586;28;20867;-79
2022/09/16 08:40:23;;;;;;;0.50;0.30;;;32.20;58.40;;;;;;5034773;28;20449;-79
2022/09/16 08:43:02;;;;;;;0.50;0.30;;;32.20;56.00;;;;;;5033526;28;21022;-78
2022/09/16 08:45:35;;;;;;;0.50;0.30;;;30.60;57.50;;;;;;5033078;28;20426;-77
2022/09/16 08:48:19;;;;;;;0.50;0.40;;;30.10;59.20;;;;;;5033727;28;20815;-78
2022/09/16 08:50:48;;;;;;;0.50;0.30;;;29.00;59.60;;;;;;5034449;28;20581;-78
2022/09/16 08:53:21;;;;;;;0.50;0.30;;;27.10;61.60;;;;;;5035179;28;20936;-79
2022/09/16 08:55:50;;;;;;;0.50;0.30;;;26.50;64.60;;;;;;5035442;28;20544;-79
2022/09/16 08:58:21;;;;;;;0.50;0.33;;;26.90;66.00;;;;;;5034908;28;20438;-78
2022/09/16 09:00:54;;;;;;;0.50;0.40;;;26.30;63.80;;;;;;5035314;28;20465;-77
2022/09/16 09:03:31;;;;;;;0.50;0.40;;;24.90;66.60;;;;;;5034649;28;20442;-78
2022/09/16 09:06:14;;;;;;;0.50;0.30;;;23.70;70.00;;;;;;5035016;28;20445;-78
2022/09/16 09:08:49;;;;;;;0.50;0.40;;;23.40;72.50;;;;;;5034377;28;20434;-77
2022/09/16 09:11:26;;;;;;;4.57;1.17;;;23.30;74.50;;;;;;5034510;28;20504;-78
2022/09/16 09:14:18;;;;;;;1.83;0.40;;;24.30;73.70;;;;;;5034604;28;20497;-77
2022/09/16 09:16:52;;;;;;;0.50;0.30;;;25.60;71.10;;;;;;5035110;28;20448;-78
2022/09/16 09:19:36;;;;;;;11.73;1.13;;;25.90;65.80;;;;;;5034968;28;20452;-78
2022/09/16 09:22:12;;;;;;;0.50;0.30;;;26.20;65.40;;;;;;5035805;28;20533;-79
2022/09/16 09:24:54;;;;;;;0.50;0.30;;;27.30;67.10;;;;;;5036044;28;20812;-77
2022/09/16 09:27:27;;;;;;;0.50;0.30;;;28.60;63.80;;;;;;5035703;28;20842;-79
2022/09/16 09:30:09;;;;;;;0.73;0.60;;;26.80;63.00;;;;;;5035092;28;20843;-78
2022/09/16 09:32:57;;;;;;;0.50;0.30;;;26.60;64.30;;;;;;5036956;28;20477;-78
2022/09/16 09:35:46;;;;;;;0.50;0.30;;;26.80;64.50;;;;;;5034504;28;20474;-78
2022/09/16 09:38:30;;;;;;;0.50;0.40;;;27.00;61.70;;;;;;5036552;28;20434;-78
2022/09/16 09:41:00;;;;;;;0.50;0.40;;;27.10;61.50;;;;;;5035278;28;20474;-79
2022/09/16 09:43:32;;;;;;;1.07;0.80;;;27.10;63.30;;;;;;5035900;28;20438;-78
2022/09/16 09:46:05;;;;;;;0.50;0.40;;;28.00;62.10;;;;;;5035151;28;20473;-78
2022/09/16 09:48:36;;;;;;;0.50;0.40;;;26.50;59.30;;;;;;5033895;28;20442;-75
2022/09/16 09:51:10;;;;;;;0.50;0.30;;;25.20;61.40;;;;;;5033504;28;20458;-78
2022/09/16 09:53:44;;;;;;;0.50;0.37;;;24.10;65.70;;;;;;5033776;28;20983;-78
2022/09/16 09:56:16;;;;;;;0.50;0.33;;;22.90;67.20;;;;;;5032861;28;20441;-78
2022/09/16 09:58:51;;;;;;;0.60;0.40;;;22.00;70.70;;;;;;5033022;28;20422;-77
2022/09/16 10:01:19;;;;;;;0.90;0.90;;;21.30;69.20;;;;;;5033181;28;20568;-79
2022/09/16 10:03:48;;;;;;;0.50;0.40;;;20.70;70.60;;;;;;5033449;28;20440;-77
2022/09/16 10:06:26;;;;;;;0.50;0.37;;;20.10;71.90;;;;;;5033338;28;20438;-77
2022/09/16 10:08:56;;;;;;;0.50;0.40;;;19.50;74.80;;;;;;5033055;28;20448;-78
2022/09/16 10:11:25;;;;;;;0.50;0.30;;;19.30;78.20;;;;;;5032250;28;20508;-75
2022/09/16 10:13:54;;;;;;;0.80;0.47;;;19.40;86.10;;;;;;5032978;28;20921;-77
2022/09/16 10:16:26;;;;;;;0.60;0.50;;;21.00;92.00;;;;;;5033670;28;20450;-78
2022/09/16 10:18:57;;;;;;;0.50;0.40;;;22.70;80.20;;;;;;5034904;28;20505;-77
2022/09/16 10:21:25;;;;;;;0.50;0.40;;;23.20;74.70;;;;;;5033394;28;20458;-78
2022/09/16 10:23:56;;;;;;;0.50;0.30;;;23.00;73.70;;;;;;5033501;28;20815;-76
2022/09/16 10:26:24;;;;;;;0.50;0.30;;;22.80;76.70;;;;;;5032616;28;20478;-77
2022/09/16 10:28:57;;;;;;;3.33;1.60;;;22.80;76.30;;;;;;5033061;28;20816;-77
2022/09/16 10:31:29;;;;;;;0.50;0.30;;;22.50;74.00;;;;;;5033094;28;20711;-77
2022/09/16 10:33:56;;;;;;;0.50;0.40;;;21.70;72.70;;;;;;5032282;28;20432;-76
2022/09/16 10:36:25;;;;;;;0.50;0.40;;;21.10;75.40;;;;;;5033217;28;20464;-78
2022/09/16 10:38:55;;;;;;;0.60;0.57;;;20.60;78.80;;;;;;5032781;28;20947;-78
2022/09/16 10:41:24;;;;;;;0.50;0.30;;;20.30;81.50;;;;;;5032321;28;20464;-76
2022/09/16 10:43:53;;;;;;;0.50;0.30;;;20.00;84.00;;;;;;5032725;28;20446;-78
2022/09/16 10:46:20;;;;;;;0.60;0.40;;;19.50;87.30;;;;;;5033030;28;20444;-78
2022/09/16 10:48:50;;;;;;;1.47;1.37;;;19.00;87.10;;;;;;5033366;28;20452;-78
2022/09/16 10:51:23;;;;;;;0.60;0.40;;;18.50;94.40;;;;;;5032513;28;20549;-78
2022/09/16 10:53:53;;;;;;;0.50;0.40;;;18.30;96.80;;;;;;5032710;28;20460;-78
2022/09/16 10:56:22;;;;;;;0.50;0.40;;;18.20;99.90;;;;;;5032198;28;20442;-78
2022/09/16 10:58:49;;;;;;;0.50;0.30;;;19.30;99.90;;;;;;5032265;28;20940;-78
2022/09/16 11:01:31;;;;;;;1.23;0.70;;;20.70;98.20;;;;;;5032380;28;20462;-78
2022/09/16 11:04:32;;;;;;;4.50;0.50;;;22.30;93.60;;;;;;5033727;28;20872;-78
2022/09/16 11:07:18;;;;;;;0.60;0.57;;;23.70;80.90;;;;;;5032944;28;20427;-78
2022/09/16 11:09:54;;;;;;;0.50;0.30;;;23.50;76.60;;;;;;5032843;28;20430;-78
2022/09/16 11:12:53;;;;;;;0.57;0.37;;;23.20;76.40;;;;;;5031935;28;20469;-78
2022/09/16 11:15:35;;;;;;;0.50;0.40;;;22.40;76.20;;;;;;5032434;28;20545;-78
2022/09/16 11:18:17;;;;;;;0.50;0.30;;;21.80;72.00;;;;;;5031922;28;20422;-78
2022/09/16 11:21:08;;;;;;;0.50;0.30;;;20.70;72.60;;;;;;5031818;28;20485;-78
2022/09/16 11:23:49;;;;;;;0.50;0.40;;;20.10;73.90;;;;;;5031946;28;20437;-78
2022/09/16 11:26:22;;;;;;;0.50;0.30;;;19.70;75.20;;;;;;5031470;28;20553;-78
2022/09/16 11:29:18;;;;;;;0.50;0.33;;;19.10;79.70;;;;;;5031744;28;20896;-78
2022/09/16 11:31:58;;;;;;;0.50;0.40;;;18.70;87.20;;;;;;5036190;28;20458;-79
2022/09/16 11:34:43;;;;;;;2.90;2.70;;;18.30;90.90;;;;;;5037992;28;20458;-79
2022/09/16 11:37:17;;;;;;;0.50;0.40;;;17.60;99.90;;;;;;5037252;28;20426;-79
2022/09/16 11:40:02;;;;;;;0.50;0.40;;;17.50;99.90;;;;;;5103403;22;20495;-76
2022/09/16 11:42:35;;;;;;;0.50;0.40;;;17.30;99.90;;;;;;5051392;28;21141;-77
2022/09/16 11:45:15;;;;;;;0.60;0.40;;;17.90;99.90;;;;;;5071643;28;20436;-75
2022/09/16 11:47:57;;;;;;;0.60;0.60;;;18.40;99.90;;;;;;5071633;28;20446;-77
2022/09/16 11:50:36;;;;;;;1.90;1.80;;;18.60;99.90;;;;;;5071328;28;20463;-77
2022/09/16 11:53:22;;;;;;;0.50;0.40;;;18.80;99.90;;;;;;5071003;28;20451;-77
2022/09/16 11:55:54;;;;;;;0.50;0.40;;;19.30;99.90;;;;;;5070833;28;20508;-76
2022/09/16 11:58:38;;;;;;;0.50;0.40;;;20.10;99.90;;;;;;5071321;28;20450;-76
2022/09/16 12:01:15;;;;;;;0.50;0.30;;;20.80;99.90;;;;;;5069878;28;20444;-76
2022/09/16 12:03:47;;;;;;;0.50;0.40;;;21.50;98.50;;;;;;5071193;28;20468;-76
2022/09/16 12:06:18;;;;;;;0.50;0.30;;;22.10;93.10;;;;;;5070608;28;20499;-75
2022/09/16 12:08:54;;;;;;;0.50;0.40;;;22.40;90.30;;;;;;5070791;28;20514;-74
2022/09/16 12:11:31;;;;;;;0.50;0.40;;;22.30;86.00;;;;;;5070810;28;20506;-77
2022/09/16 12:14:05;;;;;;;0.50;0.30;;;21.60;86.30;;;;;;5070297;28;20420;-77
2022/09/16 12:16:38;;;;;;;0.50;0.30;;;22.20;91.50;;;;;;5071115;28;20826;-74
2022/09/16 12:19:10;;;;;;;0.50;0.40;;;23.60;87.90;;;;;;5070912;28;20456;-76
2022/09/16 12:21:42;;;;;;;0.50;0.40;;;23.90;79.00;;;;;;5070722;28;20498;-73
2022/09/16 12:24:17;;;;;;;1.00;0.70;;;24.10;79.70;;;;;;5071249;28;20450;-74
2022/09/16 12:26:50;;;;;;;4.47;0.90;;;24.10;81.40;;;;;;5073103;28;20805;-71
2022/09/16 12:29:23;;;;;;;0.50;0.30;;;23.60;82.80;;;;;;5074750;28;20547;-74
2022/09/16 12:31:55;;;;;;;0.60;0.40;;;24.00;84.00;;;;;;5074530;28;20868;-76
2022/09/16 12:34:26;;;;;;;0.50;0.30;;;24.30;83.60;;;;;;5073813;28;20494;-77
2022/09/16 12:37:00;;;;;;;0.50;0.30;;;24.40;79.60;;;;;;5073578;28;20428;-77
2022/09/16 12:39:28;;;;;;;0.60;0.50;;;24.30;81.20;;;;;;5074144;28;20545;-76
2022/09/16 12:42:32;;;;;;;0.83;0.53;;;23.70;80.00;;;;;;5074127;28;20945;-76
2022/09/16 12:45:25;;;;;;;0.57;0.43;;;22.30;82.90;;;;;;5033218;28;20523;-73
2022/09/16 12:48:17;;;;;;;0.50;0.33;;;22.00;85.20;;;;;;5074385;28;20491;-76
2022/09/16 12:50:57;;;;;;;0.50;0.30;;;22.30;83.60;;;;;;5074154;28;20491;-76
2022/09/16 12:54:03;;;;;;;0.50;0.30;;;22.80;84.20;;;;;;5074115;28;20477;-76
2022/09/16 12:56:45;;;;;;;0.50;0.30;;;23.70;82.90;;;;;;5073948;28;20485;-76
2022/09/16 12:59:58;;;;;;;1.10;0.50;;;23.90;80.50;;;;;;5074097;28;20447;-77
2022/09/16 13:02:33;;;;;;;0.60;0.40;;;24.20;78.40;;;;;;5066362;28;20523;-76
2022/09/16 13:05:13;;;;;;;0.50;0.30;;;24.60;75.40;;;;;;5074041;28;20416;-77
2022/09/16 13:07:40;;;;;;;0.50;0.40;;;24.40;76.90;;;;;;5073509;28;20447;-76
2022/09/16 13:10:16;;;;;;;0.50;0.40;;;24.10;77.40;;;;;;5073549;28;20464;-75